Terminal Aerodrome Forecast
Issued by NWS Green Bay, WI

Home | Current Version | Previous Version | Text Only | Print | Product List | Glossary On
Versions: 1 2 3 4 5 6 7 8 9 10 11 12 13 14 15 16 17 18 19 20 21 22 23
000
FTUS43 KGRB 170520
TAFGRB
TAF
KGRB 170520Z 1706/1806 25007KT P6SM SKC
     FM171000 25009KT P6SM SCT200 WS016/27035KT
     FM171500 24013G20KT P6SM SCT250 WS020/27045KT
     FM171800 24016G26KT 6SM BLSN SKC WS020/28050KT
     FM180100 24015G23KT P6SM SKC WS018/28060KT=

USA.gov is the U.S. government's official web portal to all federal, state and local government web resources and services.